sensor_id;sensor_type;location;lat;lon;timestamp;temperature;humidity
4757;DHT22;2392;52.578;13.426;2022-09-03T00:00:22;15.20;92.30
4757;DHT22;2392;52.578;13.426;2022-09-03T00:02:56;15.20;92.40
4757;DHT22;2392;52.578;13.426;2022-09-03T00:05:28;15.20;92.30
4757;DHT22;2392;52.578;13.426;2022-09-03T00:08:03;15.20;92.30
4757;DHT22;2392;52.578;13.426;2022-09-03T00:10:37;15.20;92.60
4757;DHT22;2392;52.578;13.426;2022-09-03T00:13:13;15.20;92.40
4757;DHT22;2392;52.578;13.426;2022-09-03T00:15:41;15.20;92.40
4757;DHT22;2392;52.578;13.426;2022-09-03T00:18:11;15.20;92.60
4757;DHT22;2392;52.578;13.426;2022-09-03T00:20:42;15.10;92.30
4757;DHT22;2392;52.578;13.426;2022-09-03T00:23:17;15.10;92.30
4757;DHT22;2392;52.578;13.426;2022-09-03T00:25:49;15.10;92.50
4757;DHT22;2392;52.578;13.426;2022-09-03T00:28:21;15.10;92.60
4757;DHT22;2392;52.578;13.426;2022-09-03T00:30:51;15.00;92.60
4757;DHT22;2392;52.578;13.426;2022-09-03T00:33:25;15.00;92.70
4757;DHT22;2392;52.578;13.426;2022-09-03T00:36:02;15.00;92.70
4757;DHT22;2392;52.578;13.426;2022-09-03T00:38:32;15.00;92.80
4757;DHT22;2392;52.578;13.426;2022-09-03T00:41:05;15.00;92.90
4757;DHT22;2392;52.578;13.426;2022-09-03T00:43:49;15.00;93.00
4757;DHT22;2392;52.578;13.426;2022-09-03T00:46:23;15.00;93.20
4757;DHT22;2392;52.578;13.426;2022-09-03T00:49:07;15.00;93.30
4757;DHT22;2392;52.578;13.426;2022-09-03T00:51:43;14.90;93.30
4757;DHT22;2392;52.578;13.426;2022-09-03T00:54:19;14.90;93.20
4757;DHT22;2392;52.578;13.426;2022-09-03T00:56:54;14.90;93.20
4757;DHT22;2392;52.578;13.426;2022-09-03T00:59:30;14.90;93.30
4757;DHT22;2392;52.578;13.426;2022-09-03T01:02:06;14.90;93.30
4757;DHT22;2392;52.578;13.426;2022-09-03T01:04:47;14.80;93.50
4757;DHT22;2392;52.578;13.426;2022-09-03T01:07:25;14.80;93.60
4757;DHT22;2392;52.578;13.426;2022-09-03T01:10:06;14.80;93.80
4757;DHT22;2392;52.578;13.426;2022-09-03T01:12:46;14.80;93.90
4757;DHT22;2392;52.578;13.426;2022-09-03T01:15:20;14.80;94.10
4757;DHT22;2392;52.578;13.426;2022-09-03T01:18:01;14.70;94.10
4757;DHT22;2392;52.578;13.426;2022-09-03T01:20:49;14.70;94.20
4757;DHT22;2392;52.578;13.426;2022-09-03T01:26:32;14.60;94.20
4757;DHT22;2392;52.578;13.426;2022-09-03T01:29:09;14.60;94.60
4757;DHT22;2392;52.578;13.426;2022-09-03T01:31:42;14.50;94.60
4757;DHT22;2392;52.578;13.426;2022-09-03T01:34:21;14.60;94.50
4757;DHT22;2392;52.578;13.426;2022-09-03T01:37:00;14.50;94.50
4757;DHT22;2392;52.578;13.426;2022-09-03T01:39:38;14.50;94.90
4757;DHT22;2392;52.578;13.426;2022-09-03T01:42:18;14.50;95.00
4757;DHT22;2392;52.578;13.426;2022-09-03T01:45:25;14.40;94.80
4757;DHT22;2392;52.578;13.426;2022-09-03T01:48:13;14.40;95.00
4757;DHT22;2392;52.578;13.426;2022-09-03T01:50:50;14.40;94.90
4757;DHT22;2392;52.578;13.426;2022-09-03T01:53:39;14.30;95.00
4757;DHT22;2392;52.578;13.426;2022-09-03T01:56:21;14.40;95.00
4757;DHT22;2392;52.578;13.426;2022-09-03T01:58:55;14.30;94.90
4757;DHT22;2392;52.578;13.426;2022-09-03T02:01:32;14.30;95.10
4757;DHT22;2392;52.578;13.426;2022-09-03T02:03:59;14.30;95.50
4757;DHT22;2392;52.578;13.426;2022-09-03T02:06:28;14.30;95.40
4757;DHT22;2392;52.578;13.426;2022-09-03T02:08:56;14.30;95.30
4757;DHT22;2392;52.578;13.426;2022-09-03T02:11:23;14.30;95.50
4757;DHT22;2392;52.578;13.426;2022-09-03T02:13:53;14.20;95.50
4757;DHT22;2392;52.578;13.426;2022-09-03T02:16:26;14.20;95.60
4757;DHT22;2392;52.578;13.426;2022-09-03T02:18:57;14.20;95.90
4757;DHT22;2392;52.578;13.426;2022-09-03T02:21:27;14.10;95.90
4757;DHT22;2392;52.578;13.426;2022-09-03T02:23:57;14.20;95.90
4757;DHT22;2392;52.578;13.426;2022-09-03T02:26:25;14.10;96.00
4757;DHT22;2392;52.578;13.426;2022-09-03T02:28:53;14.10;95.90
4757;DHT22;2392;52.578;13.426;2022-09-03T02:31:21;14.10;96.10
4757;DHT22;2392;52.578;13.426;2022-09-03T02:33:49;14.10;96.20
4757;DHT22;2392;52.578;13.426;2022-09-03T02:36:20;14.10;96.20
4757;DHT22;2392;52.578;13.426;2022-09-03T02:38:51;14.00;96.40
4757;DHT22;2392;52.578;13.426;2022-09-03T02:41:18;14.00;96.40
4757;DHT22;2392;52.578;13.426;2022-09-03T02:43:49;14.00;96.40
4757;DHT22;2392;52.578;13.426;2022-09-03T02:46:19;13.90;96.60
4757;DHT22;2392;52.578;13.426;2022-09-03T02:48:46;14.00;96.60
4757;DHT22;2392;52.578;13.426;2022-09-03T02:51:13;13.90;96.60
4757;DHT22;2392;52.578;13.426;2022-09-03T02:53:42;13.90;96.70
4757;DHT22;2392;52.578;13.426;2022-09-03T02:56:09;13.90;96.70
4757;DHT22;2392;52.578;13.426;2022-09-03T02:58:37;13.90;96.70
4757;DHT22;2392;52.578;13.426;2022-09-03T03:01:04;13.90;96.80
4757;DHT22;2392;52.578;13.426;2022-09-03T03:03:31;13.90;96.90
4757;DHT22;2392;52.578;13.426;2022-09-03T03:06:02;13.80;96.90
4757;DHT22;2392;52.578;13.426;2022-09-03T03:08:29;13.80;96.90
4757;DHT22;2392;52.578;13.426;2022-09-03T03:11:00;13.80;97.00
4757;DHT22;2392;52.578;13.426;2022-09-03T03:13:28;13.80;96.90
4757;DHT22;2392;52.578;13.426;2022-09-03T03:15:56;13.80;97.10
4757;DHT22;2392;52.578;13.426;2022-09-03T03:18:24;13.70;97.20
4757;DHT22;2392;52.578;13.426;2022-09-03T03:20:51;13.80;97.30
4757;DHT22;2392;52.578;13.426;2022-09-03T03:23:18;13.80;97.20
4757;DHT22;2392;52.578;13.426;2022-09-03T03:25:45;13.70;97.20
4757;DHT22;2392;52.578;13.426;2022-09-03T03:28:13;13.70;97.20
4757;DHT22;2392;52.578;13.426;2022-09-03T03:30:40;13.60;97.30
4757;DHT22;2392;52.578;13.426;2022-09-03T03:33:07;13.70;97.30
4757;DHT22;2392;52.578;13.426;2022-09-03T03:35:35;13.60;97.40
4757;DHT22;2392;52.578;13.426;2022-09-03T03:38:02;13.60;97.30
4757;DHT22;2392;52.578;13.426;2022-09-03T03:40:29;13.60;97.40
4757;DHT22;2392;52.578;13.426;2022-09-03T03:42:57;13.60;97.50
4757;DHT22;2392;52.578;13.426;2022-09-03T03:45:25;13.60;97.60
4757;DHT22;2392;52.578;13.426;2022-09-03T03:47:56;13.50;97.60
4757;DHT22;2392;52.578;13.426;2022-09-03T03:50:23;13.50;97.70
4757;DHT22;2392;52.578;13.426;2022-09-03T03:52:50;13.60;97.80
4757;DHT22;2392;52.578;13.426;2022-09-03T03:55:17;13.60;98.00
4757;DHT22;2392;52.578;13.426;2022-09-03T03:57:44;13.60;97.80
4757;DHT22;2392;52.578;13.426;2022-09-03T04:00:12;13.50;98.10
4757;DHT22;2392;52.578;13.426;2022-09-03T04:02:44;13.60;98.30
4757;DHT22;2392;52.578;13.426;2022-09-03T04:05:11;13.60;98.40
4757;DHT22;2392;52.578;13.426;2022-09-03T04:07:39;13.60;98.30
4757;DHT22;2392;52.578;13.426;2022-09-03T04:10:07;13.60;98.50
4757;DHT22;2392;52.578;13.426;2022-09-03T04:12:34;13.60;98.50
4757;DHT22;2392;52.578;13.426;2022-09-03T04:15:01;13.70;98.60
4757;DHT22;2392;52.578;13.426;2022-09-03T04:17:28;13.60;98.60
4757;DHT22;2392;52.578;13.426;2022-09-03T04:19:56;13.60;98.80
4757;DHT22;2392;52.578;13.426;2022-09-03T04:22:23;13.60;98.90
4757;DHT22;2392;52.578;13.426;2022-09-03T04:24:50;13.60;99.20
4757;DHT22;2392;52.578;13.426;2022-09-03T04:27:16;13.60;99.30
4757;DHT22;2392;52.578;13.426;2022-09-03T04:29:43;13.60;99.80
4757;DHT22;2392;52.578;13.426;2022-09-03T04:32:10;13.60;99.50
4757;DHT22;2392;52.578;13.426;2022-09-03T04:34:56;13.70;99.70
4757;DHT22;2392;52.578;13.426;2022-09-03T04:37:23;13.70;99.90
4757;DHT22;2392;52.578;13.426;2022-09-03T04:39:49;13.70;99.90
4757;DHT22;2392;52.578;13.426;2022-09-03T04:42:18;13.70;99.90
4757;DHT22;2392;52.578;13.426;2022-09-03T04:44:45;13.70;99.90
4757;DHT22;2392;52.578;13.426;2022-09-03T04:47:12;13.70;99.90
4757;DHT22;2392;52.578;13.426;2022-09-03T04:49:39;13.70;99.90
4757;DHT22;2392;52.578;13.426;2022-09-03T04:52:08;13.80;99.90
4757;DHT22;2392;52.578;13.426;2022-09-03T04:54:35;13.80;99.90
4757;DHT22;2392;52.578;13.426;2022-09-03T04:57:02;13.80;99.90
4757;DHT22;2392;52.578;13.426;2022-09-03T04:59:29;13.80;99.90
4757;DHT22;2392;52.578;13.426;2022-09-03T05:01:56;13.80;99.90
4757;DHT22;2392;52.578;13.426;2022-09-03T05:04:23;13.90;99.90
4757;DHT22;2392;52.578;13.426;2022-09-03T05:06:50;13.90;99.90
4757;DHT22;2392;52.578;13.426;2022-09-03T05:09:18;13.90;99.90
4757;DHT22;2392;52.578;13.426;2022-09-03T05:11:45;13.90;99.90
4757;DHT22;2392;52.578;13.426;2022-09-03T05:14:12;13.90;99.90
4757;DHT22;2392;52.578;13.426;2022-09-03T05:16:39;13.90;99.90
4757;DHT22;2392;52.578;13.426;2022-09-03T05:19:06;13.90;99.90
4757;DHT22;2392;52.578;13.426;2022-09-03T05:21:34;13.90;99.90
4757;DHT22;2392;52.578;13.426;2022-09-03T05:24:02;13.90;99.90
4757;DHT22;2392;52.578;13.426;2022-09-03T05:26:35;13.90;99.90
4757;DHT22;2392;52.578;13.426;2022-09-03T05:29:03;13.90;99.90
4757;DHT22;2392;52.578;13.426;2022-09-03T05:31:32;13.90;99.90
4757;DHT22;2392;52.578;13.426;2022-09-03T05:34:01;13.90;99.90
4757;DHT22;2392;52.578;13.426;2022-09-03T05:36:30;13.90;99.90
4757;DHT22;2392;52.578;13.426;2022-09-03T05:38:57;13.90;99.90
4757;DHT22;2392;52.578;13.426;2022-09-03T05:41:25;13.90;99.90
4757;DHT22;2392;52.578;13.426;2022-09-03T05:43:55;13.80;99.90
4757;DHT22;2392;52.578;13.426;2022-09-03T05:46:24;13.80;99.90
4757;DHT22;2392;52.578;13.426;2022-09-03T05:48:56;13.80;99.90
4757;DHT22;2392;52.578;13.426;2022-09-03T05:51:24;13.90;99.90
4757;DHT22;2392;52.578;13.426;2022-09-03T05:53:51;13.90;99.90
4757;DHT22;2392;52.578;13.426;2022-09-03T05:56:21;13.90;99.90
4757;DHT22;2392;52.578;13.426;2022-09-03T05:58:50;13.90;99.90
4757;DHT22;2392;52.578;13.426;2022-09-03T06:01:19;14.00;99.90
4757;DHT22;2392;52.578;13.426;2022-09-03T06:03:52;14.00;99.90
4757;DHT22;2392;52.578;13.426;2022-09-03T06:06:20;14.00;99.90
4757;DHT22;2392;52.578;13.426;2022-09-03T06:08:50;14.00;99.90
4757;DHT22;2392;52.578;13.426;2022-09-03T06:11:17;14.10;99.90
4757;DHT22;2392;52.578;13.426;2022-09-03T06:13:44;14.10;99.90
4757;DHT22;2392;52.578;13.426;2022-09-03T06:16:12;14.20;99.90
4757;DHT22;2392;52.578;13.426;2022-09-03T06:18:40;14.20;99.90
4757;DHT22;2392;52.578;13.426;2022-09-03T06:21:07;14.20;99.90
4757;DHT22;2392;52.578;13.426;2022-09-03T06:23:34;14.20;99.90
4757;DHT22;2392;52.578;13.426;2022-09-03T06:26:04;14.20;99.90
4757;DHT22;2392;52.578;13.426;2022-09-03T06:28:31;14.30;99.90
4757;DHT22;2392;52.578;13.426;2022-09-03T06:31:00;14.30;99.90
4757;DHT22;2392;52.578;13.426;2022-09-03T06:33:27;14.30;99.90
4757;DHT22;2392;52.578;13.426;2022-09-03T06:35:58;14.40;99.90
4757;DHT22;2392;52.578;13.426;2022-09-03T06:38:26;14.40;99.90
4757;DHT22;2392;52.578;13.426;2022-09-03T06:40:54;14.50;99.90
4757;DHT22;2392;52.578;13.426;2022-09-03T06:43:25;14.60;99.90
4757;DHT22;2392;52.578;13.426;2022-09-03T06:45:53;14.60;99.90
4757;DHT22;2392;52.578;13.426;2022-09-03T06:48:20;14.60;99.90
4757;DHT22;2392;52.578;13.426;2022-09-03T06:50:59;14.70;99.90
4757;DHT22;2392;52.578;13.426;2022-09-03T06:53:29;14.70;99.90
4757;DHT22;2392;52.578;13.426;2022-09-03T06:55:57;14.70;99.90
4757;DHT22;2392;52.578;13.426;2022-09-03T06:58:27;14.70;99.90
4757;DHT22;2392;52.578;13.426;2022-09-03T07:01:00;14.80;99.90
4757;DHT22;2392;52.578;13.426;2022-09-03T07:03:28;14.80;99.90
4757;DHT22;2392;52.578;13.426;2022-09-03T07:06:00;14.90;99.90
4757;DHT22;2392;52.578;13.426;2022-09-03T07:08:27;15.00;99.90
4757;DHT22;2392;52.578;13.426;2022-09-03T07:10:57;15.10;99.90
4757;DHT22;2392;52.578;13.426;2022-09-03T07:13:24;15.20;99.90
4757;DHT22;2392;52.578;13.426;2022-09-03T07:15:58;15.30;99.90
4757;DHT22;2392;52.578;13.426;2022-09-03T07:18:25;15.40;99.90
4757;DHT22;2392;52.578;13.426;2022-09-03T07:20:57;15.50;99.90
4757;DHT22;2392;52.578;13.426;2022-09-03T07:23:26;15.60;99.90
4757;DHT22;2392;52.578;13.426;2022-09-03T07:25:54;15.70;99.90
4757;DHT22;2392;52.578;13.426;2022-09-03T07:28:21;15.80;99.90
4757;DHT22;2392;52.578;13.426;2022-09-03T07:30:49;15.80;99.90
4757;DHT22;2392;52.578;13.426;2022-09-03T07:33:16;16.00;99.90
4757;DHT22;2392;52.578;13.426;2022-09-03T07:35:44;16.10;99.90
4757;DHT22;2392;52.578;13.426;2022-09-03T07:38:16;16.20;99.90
4757;DHT22;2392;52.578;13.426;2022-09-03T07:40:45;16.40;99.90
4757;DHT22;2392;52.578;13.426;2022-09-03T07:43:13;16.50;99.90
4757;DHT22;2392;52.578;13.426;2022-09-03T07:45:39;16.50;99.90
4757;DHT22;2392;52.578;13.426;2022-09-03T07:48:08;16.60;99.90
4757;DHT22;2392;52.578;13.426;2022-09-03T07:50:35;16.60;99.90
4757;DHT22;2392;52.578;13.426;2022-09-03T07:53:05;16.80;99.90
4757;DHT22;2392;52.578;13.426;2022-09-03T07:55:32;16.80;99.90
4757;DHT22;2392;52.578;13.426;2022-09-03T07:58:01;16.90;99.90
4757;DHT22;2392;52.578;13.426;2022-09-03T08:00:28;16.90;99.90
4757;DHT22;2392;52.578;13.426;2022-09-03T08:02:57;17.00;99.90
4757;DHT22;2392;52.578;13.426;2022-09-03T08:05:31;17.00;99.90
4757;DHT22;2392;52.578;13.426;2022-09-03T08:07:58;17.10;99.90
4757;DHT22;2392;52.578;13.426;2022-09-03T08:10:25;17.10;99.90
4757;DHT22;2392;52.578;13.426;2022-09-03T08:12:55;17.10;99.90
4757;DHT22;2392;52.578;13.426;2022-09-03T08:15:23;17.20;99.90
4757;DHT22;2392;52.578;13.426;2022-09-03T08:17:50;17.30;99.90
4757;DHT22;2392;52.578;13.426;2022-09-03T08:20:17;17.40;99.90
4757;DHT22;2392;52.578;13.426;2022-09-03T08:22:45;17.50;99.90
4757;DHT22;2392;52.578;13.426;2022-09-03T08:25:13;17.50;99.90
4757;DHT22;2392;52.578;13.426;2022-09-03T08:27:40;17.70;99.90
4757;DHT22;2392;52.578;13.426;2022-09-03T08:30:07;17.70;99.90
4757;DHT22;2392;52.578;13.426;2022-09-03T08:32:37;17.80;99.90
4757;DHT22;2392;52.578;13.426;2022-09-03T08:35:05;17.90;99.90
4757;DHT22;2392;52.578;13.426;2022-09-03T08:37:34;17.90;99.90
4757;DHT22;2392;52.578;13.426;2022-09-03T08:40:01;18.00;99.90
4757;DHT22;2392;52.578;13.426;2022-09-03T08:42:40;18.10;99.90
4757;DHT22;2392;52.578;13.426;2022-09-03T08:45:15;18.20;99.90
4757;DHT22;2392;52.578;13.426;2022-09-03T08:47:47;18.20;99.90
4757;DHT22;2392;52.578;13.426;2022-09-03T08:50:22;18.30;99.90
4757;DHT22;2392;52.578;13.426;2022-09-03T08:52:52;18.30;99.90
4757;DHT22;2392;52.578;13.426;2022-09-03T08:55:26;18.30;99.90
4757;DHT22;2392;52.578;13.426;2022-09-03T08:58:00;18.40;99.90
4757;DHT22;2392;52.578;13.426;2022-09-03T09:00:38;18.40;99.90
4757;DHT22;2392;52.578;13.426;2022-09-03T09:03:23;18.50;99.90
4757;DHT22;2392;52.578;13.426;2022-09-03T09:05:55;18.50;99.90
4757;DHT22;2392;52.578;13.426;2022-09-03T09:08:30;18.60;99.90
4757;DHT22;2392;52.578;13.426;2022-09-03T09:11:03;18.60;99.90
4757;DHT22;2392;52.578;13.426;2022-09-03T09:13:40;18.70;99.90
4757;DHT22;2392;52.578;13.426;2022-09-03T09:16:14;18.80;99.90
4757;DHT22;2392;52.578;13.426;2022-09-03T09:18:59;18.90;99.90
4757;DHT22;2392;52.578;13.426;2022-09-03T09:21:36;19.00;99.90
4757;DHT22;2392;52.578;13.426;2022-09-03T09:24:18;19.10;99.90
4757;DHT22;2392;52.578;13.426;2022-09-03T09:26:48;19.20;99.90
4757;DHT22;2392;52.578;13.426;2022-09-03T09:29:15;19.30;99.90
4757;DHT22;2392;52.578;13.426;2022-09-03T09:31:42;19.40;99.80
4757;DHT22;2392;52.578;13.426;2022-09-03T09:34:11;19.50;98.60
4757;DHT22;2392;52.578;13.426;2022-09-03T09:36:44;19.60;98.70
4757;DHT22;2392;52.578;13.426;2022-09-03T09:39:13;19.70;98.70
4757;DHT22;2392;52.578;13.426;2022-09-03T09:41:41;19.80;98.20
4757;DHT22;2392;52.578;13.426;2022-09-03T09:44:18;19.90;97.50
4757;DHT22;2392;52.578;13.426;2022-09-03T09:46:47;20.00;97.40
4757;DHT22;2392;52.578;13.426;2022-09-03T09:49:29;20.10;97.30
4757;DHT22;2392;52.578;13.426;2022-09-03T09:52:01;20.20;96.60
4757;DHT22;2392;52.578;13.426;2022-09-03T09:54:28;20.30;96.10
4757;DHT22;2392;52.578;13.426;2022-09-03T09:56:59;20.40;96.30
4757;DHT22;2392;52.578;13.426;2022-09-03T09:59:28;20.50;96.40
4757;DHT22;2392;52.578;13.426;2022-09-03T10:02:09;20.70;95.80
4757;DHT22;2392;52.578;13.426;2022-09-03T10:04:39;21.00;95.70
4757;DHT22;2392;52.578;13.426;2022-09-03T10:07:25;21.30;93.90
4757;DHT22;2392;52.578;13.426;2022-09-03T10:10:03;22.00;93.00
4757;DHT22;2392;52.578;13.426;2022-09-03T10:12:36;22.70;92.30
4757;DHT22;2392;52.578;13.426;2022-09-03T10:15:14;23.60;90.60
4757;DHT22;2392;52.578;13.426;2022-09-03T10:17:54;24.60;89.30
4757;DHT22;2392;52.578;13.426;2022-09-03T10:20:27;25.70;87.10
4757;DHT22;2392;52.578;13.426;2022-09-03T10:23:07;26.80;84.60
4757;DHT22;2392;52.578;13.426;2022-09-03T10:25:41;28.00;77.70
4757;DHT22;2392;52.578;13.426;2022-09-03T10:28:10;29.00;73.50
4757;DHT22;2392;52.578;13.426;2022-09-03T10:33:28;30.70;66.90
4757;DHT22;2392;52.578;13.426;2022-09-03T10:36:06;31.50;63.30
4757;DHT22;2392;52.578;13.426;2022-09-03T10:38:38;32.00;59.70
4757;DHT22;2392;52.578;13.426;2022-09-03T10:41:16;32.60;58.30
4757;DHT22;2392;52.578;13.426;2022-09-03T10:44:00;33.50;57.70
4757;DHT22;2392;52.578;13.426;2022-09-03T10:46:38;34.00;54.70
4757;DHT22;2392;52.578;13.426;2022-09-03T10:49:22;34.60;52.40
4757;DHT22;2392;52.578;13.426;2022-09-03T10:52:01;35.00;50.70
4757;DHT22;2392;52.578;13.426;2022-09-03T10:54:48;34.90;49.70
4757;DHT22;2392;52.578;13.426;2022-09-03T10:57:28;33.70;49.50
4757;DHT22;2392;52.578;13.426;2022-09-03T11:00:03;32.30;51.00
4757;DHT22;2392;52.578;13.426;2022-09-03T11:02:56;31.70;52.10
4757;DHT22;2392;52.578;13.426;2022-09-03T11:05:29;31.50;52.80
4757;DHT22;2392;52.578;13.426;2022-09-03T11:08:01;31.80;52.80
4757;DHT22;2392;52.578;13.426;2022-09-03T11:10:33;31.90;52.70
4757;DHT22;2392;52.578;13.426;2022-09-03T11:13:04;31.20;52.60
4757;DHT22;2392;52.578;13.426;2022-09-03T11:15:35;30.20;53.10
4757;DHT22;2392;52.578;13.426;2022-09-03T11:18:11;29.20;54.70
4757;DHT22;2392;52.578;13.426;2022-09-03T11:20:42;27.70;56.00
4757;DHT22;2392;52.578;13.426;2022-09-03T11:23:11;27.00;59.40
4757;DHT22;2392;52.578;13.426;2022-09-03T11:25:42;26.40;59.20
4757;DHT22;2392;52.578;13.426;2022-09-03T11:28:19;25.80;59.60
4757;DHT22;2392;52.578;13.426;2022-09-03T11:31:03;25.50;60.80
4757;DHT22;2392;52.578;13.426;2022-09-03T11:33:41;25.20;62.00
4757;DHT22;2392;52.578;13.426;2022-09-03T11:36:11;25.20;62.90
4757;DHT22;2392;52.578;13.426;2022-09-03T11:38:39;25.30;63.10
4757;DHT22;2392;52.578;13.426;2022-09-03T11:41:12;25.30;62.90
4757;DHT22;2392;52.578;13.426;2022-09-03T11:43:42;25.30;63.80
4757;DHT22;2392;52.578;13.426;2022-09-03T11:46:13;25.50;62.50
4757;DHT22;2392;52.578;13.426;2022-09-03T11:48:42;25.50;62.00
4757;DHT22;2392;52.578;13.426;2022-09-03T11:51:29;25.30;62.00
4757;DHT22;2392;52.578;13.426;2022-09-03T11:53:59;25.10;62.10
4757;DHT22;2392;52.578;13.426;2022-09-03T11:56:27;24.90;62.80
4757;DHT22;2392;52.578;13.426;2022-09-03T11:59:16;24.80;63.60
4757;DHT22;2392;52.578;13.426;2022-09-03T12:01:48;24.70;64.50
4757;DHT22;2392;52.578;13.426;2022-09-03T12:04:27;24.50;64.70
4757;DHT22;2392;52.578;13.426;2022-09-03T12:07:09;24.30;64.20
4757;DHT22;2392;52.578;13.426;2022-09-03T12:10:01;24.00;64.70
4757;DHT22;2392;52.578;13.426;2022-09-03T12:12:48;23.70;65.40
4757;DHT22;2392;52.578;13.426;2022-09-03T12:15:36;23.50;67.40
4757;DHT22;2392;52.578;13.426;2022-09-03T12:18:10;23.40;66.80
4757;DHT22;2392;52.578;13.426;2022-09-03T12:20:59;23.40;67.00
4757;DHT22;2392;52.578;13.426;2022-09-03T12:23:27;23.20;66.40
4757;DHT22;2392;52.578;13.426;2022-09-03T12:25:57;23.20;67.60
4757;DHT22;2392;52.578;13.426;2022-09-03T12:28:27;23.20;66.30
4757;DHT22;2392;52.578;13.426;2022-09-03T12:31:05;23.30;67.00
4757;DHT22;2392;52.578;13.426;2022-09-03T12:33:34;23.40;66.20
4757;DHT22;2392;52.578;13.426;2022-09-03T12:36:09;23.40;65.20
4757;DHT22;2392;52.578;13.426;2022-09-03T12:38:36;23.30;64.90
4757;DHT22;2392;52.578;13.426;2022-09-03T12:41:05;23.20;65.40
4757;DHT22;2392;52.578;13.426;2022-09-03T12:43:50;23.20;65.50
4757;DHT22;2392;52.578;13.426;2022-09-03T12:46:17;23.20;65.20
4757;DHT22;2392;52.578;13.426;2022-09-03T12:48:58;23.20;65.20
4757;DHT22;2392;52.578;13.426;2022-09-03T12:51:33;23.20;65.40
4757;DHT22;2392;52.578;13.426;2022-09-03T12:54:02;23.20;65.00
4757;DHT22;2392;52.578;13.426;2022-09-03T12:56:33;23.40;64.50
4757;DHT22;2392;52.578;13.426;2022-09-03T12:59:04;23.50;65.10
4757;DHT22;2392;52.578;13.426;2022-09-03T13:01:42;23.60;64.50
4757;DHT22;2392;52.578;13.426;2022-09-03T13:04:14;23.50;63.50
4757;DHT22;2392;52.578;13.426;2022-09-03T13:06:47;23.40;63.90
4757;DHT22;2392;52.578;13.426;2022-09-03T13:09:20;23.40;64.80
4757;DHT22;2392;52.578;13.426;2022-09-03T13:11:50;23.30;64.10
4757;DHT22;2392;52.578;13.426;2022-09-03T13:14:20;23.30;64.60
4757;DHT22;2392;52.578;13.426;2022-09-03T13:17:17;23.30;65.00
4757;DHT22;2392;52.578;13.426;2022-09-03T13:19:57;23.50;65.20
4757;DHT22;2392;52.578;13.426;2022-09-03T13:22:33;23.70;64.40
4757;DHT22;2392;52.578;13.426;2022-09-03T13:25:13;23.80;64.30
4757;DHT22;2392;52.578;13.426;2022-09-03T13:27:50;23.70;62.90
4757;DHT22;2392;52.578;13.426;2022-09-03T13:30:19;23.70;64.10
4757;DHT22;2392;52.578;13.426;2022-09-03T13:32:55;23.50;64.30
4757;DHT22;2392;52.578;13.426;2022-09-03T13:35:33;23.30;63.20
4757;DHT22;2392;52.578;13.426;2022-09-03T13:38:12;23.20;64.60
4757;DHT22;2392;52.578;13.426;2022-09-03T13:40:48;23.10;64.80
4757;DHT22;2392;52.578;13.426;2022-09-03T13:43:27;23.00;65.10
4757;DHT22;2392;52.578;13.426;2022-09-03T13:46:00;22.80;65.10
4757;DHT22;2392;52.578;13.426;2022-09-03T13:48:31;22.80;65.60
4757;DHT22;2392;52.578;13.426;2022-09-03T13:51:22;22.80;66.40
4757;DHT22;2392;52.578;13.426;2022-09-03T13:54:00;22.70;65.80
4757;DHT22;2392;52.578;13.426;2022-09-03T13:56:35;22.70;66.30
4757;DHT22;2392;52.578;13.426;2022-09-03T13:59:11;22.70;65.60
4757;DHT22;2392;52.578;13.426;2022-09-03T14:01:57;22.70;65.60
4757;DHT22;2392;52.578;13.426;2022-09-03T14:04:28;22.70;64.90
4757;DHT22;2392;52.578;13.426;2022-09-03T14:07:03;22.70;65.20
4757;DHT22;2392;52.578;13.426;2022-09-03T14:09:38;22.80;65.60
4757;DHT22;2392;52.578;13.426;2022-09-03T14:12:13;22.90;65.90
4757;DHT22;2392;52.578;13.426;2022-09-03T14:14:52;23.00;67.00
4757;DHT22;2392;52.578;13.426;2022-09-03T14:17:31;23.00;65.80
4757;DHT22;2392;52.578;13.426;2022-09-03T14:20:05;23.10;66.40
4757;DHT22;2392;52.578;13.426;2022-09-03T14:22:44;23.00;66.60
4757;DHT22;2392;52.578;13.426;2022-09-03T14:25:15;23.00;65.70
4757;DHT22;2392;52.578;13.426;2022-09-03T14:27:43;23.00;64.80
4757;DHT22;2392;52.578;13.426;2022-09-03T14:30:24;22.90;65.10
4757;DHT22;2392;52.578;13.426;2022-09-03T14:32:57;22.90;65.80
4757;DHT22;2392;52.578;13.426;2022-09-03T14:35:43;22.90;66.40
4757;DHT22;2392;52.578;13.426;2022-09-03T14:38:34;22.90;65.50
4757;DHT22;2392;52.578;13.426;2022-09-03T14:41:09;22.90;64.70
4757;DHT22;2392;52.578;13.426;2022-09-03T14:44:15;22.80;64.60
4757;DHT22;2392;52.578;13.426;2022-09-03T14:46:55;22.90;65.10
4757;DHT22;2392;52.578;13.426;2022-09-03T14:49:45;23.20;66.10
4757;DHT22;2392;52.578;13.426;2022-09-03T14:52:32;23.40;64.40
4757;DHT22;2392;52.578;13.426;2022-09-03T14:55:24;23.50;63.90
4757;DHT22;2392;52.578;13.426;2022-09-03T14:58:06;23.40;63.70
4757;DHT22;2392;52.578;13.426;2022-09-03T15:00:44;23.30;64.50
4757;DHT22;2392;52.578;13.426;2022-09-03T15:06:13;23.20;65.20
4757;DHT22;2392;52.578;13.426;2022-09-03T15:09:00;23.10;65.10
4757;DHT22;2392;52.578;13.426;2022-09-03T15:11:34;23.10;65.20
4757;DHT22;2392;52.578;13.426;2022-09-03T15:14:13;23.00;64.80
4757;DHT22;2392;52.578;13.426;2022-09-03T15:16:48;22.90;65.40
4757;DHT22;2392;52.578;13.426;2022-09-03T15:19:35;22.80;66.10
4757;DHT22;2392;52.578;13.426;2022-09-03T15:22:12;22.70;66.80
4757;DHT22;2392;52.578;13.426;2022-09-03T15:24:50;22.50;64.90
4757;DHT22;2392;52.578;13.426;2022-09-03T15:30:13;22.40;64.90
4757;DHT22;2392;52.578;13.426;2022-09-03T15:33:00;22.20;65.20
4757;DHT22;2392;52.578;13.426;2022-09-03T15:35:42;22.30;65.80
4757;DHT22;2392;52.578;13.426;2022-09-03T15:38:18;22.20;65.90
4757;DHT22;2392;52.578;13.426;2022-09-03T15:40:50;22.30;66.40
4757;DHT22;2392;52.578;13.426;2022-09-03T15:43:22;22.30;67.30
4757;DHT22;2392;52.578;13.426;2022-09-03T15:45:54;22.30;66.70
4757;DHT22;2392;52.578;13.426;2022-09-03T15:48:30;22.40;66.70
4757;DHT22;2392;52.578;13.426;2022-09-03T15:51:09;22.30;66.30
4757;DHT22;2392;52.578;13.426;2022-09-03T15:53:40;22.30;66.40
4757;DHT22;2392;52.578;13.426;2022-09-03T15:56:18;22.30;66.50
4757;DHT22;2392;52.578;13.426;2022-09-03T15:58:51;22.30;67.00
4757;DHT22;2392;52.578;13.426;2022-09-03T16:01:27;22.30;67.00
4757;DHT22;2392;52.578;13.426;2022-09-03T16:04:04;22.30;66.90
4757;DHT22;2392;52.578;13.426;2022-09-03T16:06:51;22.20;66.90
4757;DHT22;2392;52.578;13.426;2022-09-03T16:09:28;22.20;65.90
4757;DHT22;2392;52.578;13.426;2022-09-03T16:12:05;22.20;66.40
4757;DHT22;2392;52.578;13.426;2022-09-03T16:14:39;22.10;66.30
4757;DHT22;2392;52.578;13.426;2022-09-03T16:17:17;22.00;66.20
4757;DHT22;2392;52.578;13.426;2022-09-03T16:19:52;22.00;66.70
4757;DHT22;2392;52.578;13.426;2022-09-03T16:25:00;22.00;67.30
4757;DHT22;2392;52.578;13.426;2022-09-03T16:27:31;21.90;67.50
4757;DHT22;2392;52.578;13.426;2022-09-03T16:30:07;21.80;68.60
4757;DHT22;2392;52.578;13.426;2022-09-03T16:32:52;21.70;68.40
4757;DHT22;2392;52.578;13.426;2022-09-03T16:35:32;21.60;68.70